createdAt,value
2022-09-21T00:02:10.590Z,74.5
2022-09-21T00:05:10.578Z,74.5
2022-09-21T00:08:10.572Z,74.5
2022-09-21T00:11:10.599Z,74.5
2022-09-21T00:14:10.746Z,74.5
2022-09-21T00:17:10.577Z,74.5
2022-09-21T00:20:10.596Z,74.5
2022-09-21T00:23:10.578Z,74.5
2022-09-21T00:26:10.597Z,75
2022-09-21T00:29:10.578Z,75
2022-09-21T00:32:10.584Z,75
2022-09-21T00:35:10.593Z,75
2022-09-21T00:38:10.583Z,75
2022-09-21T00:41:10.576Z,75.5
2022-09-21T00:44:10.574Z,75.5
2022-09-21T00:47:10.582Z,75.5
2022-09-21T00:50:10.581Z,75.5
2022-09-21T00:53:10.578Z,75.5
2022-09-21T00:56:10.599Z,75.5
2022-09-21T00:59:10.579Z,75.5
2022-09-21T01:02:10.597Z,75.5
2022-09-21T01:05:10.602Z,75.5
2022-09-21T01:08:10.577Z,75.5
2022-09-21T01:11:10.599Z,75.5
2022-09-21T01:14:10.577Z,75.5
2022-09-21T01:17:10.602Z,75.5
2022-09-21T01:20:10.585Z,75.5
2022-09-21T01:23:10.605Z,75.5
2022-09-21T01:26:10.598Z,75.5
2022-09-21T01:29:10.578Z,75.5
2022-09-21T01:32:10.604Z,76
2022-09-21T01:35:10.594Z,76
2022-09-21T01:38:10.584Z,76
2022-09-21T01:41:10.613Z,76
2022-09-21T01:44:10.607Z,76
2022-09-21T01:47:10.601Z,76
2022-09-21T01:50:10.602Z,76
2022-09-21T01:53:10.589Z,76.5
2022-09-21T01:56:10.606Z,76.5
2022-09-21T01:59:10.608Z,76.5
2022-09-21T02:02:10.614Z,76.5
2022-09-21T02:05:10.586Z,76.5
2022-09-21T02:08:10.585Z,76.5
2022-09-21T02:11:10.610Z,76.5
2022-09-21T02:14:10.586Z,76.5
2022-09-21T02:17:10.586Z,76.5
2022-09-21T02:20:10.614Z,76.5
2022-09-21T02:23:10.597Z,76.5
2022-09-21T02:26:10.611Z,76.5
2022-09-21T02:29:10.584Z,76.5
2022-09-21T02:32:10.587Z,76.5
2022-09-21T02:35:10.610Z,76.5
2022-09-21T02:38:10.590Z,76.5
2022-09-21T02:41:10.603Z,76.5
2022-09-21T02:44:10.588Z,76.5
2022-09-21T02:47:10.608Z,76.5
2022-09-21T02:50:10.594Z,76.5
2022-09-21T02:53:10.585Z,76.5
2022-09-21T02:56:10.608Z,76.5
2022-09-21T02:59:10.590Z,76.5
2022-09-21T03:02:10.616Z,76.5
2022-09-21T03:05:10.609Z,76.5
2022-09-21T03:08:10.592Z,76.5
2022-09-21T03:11:10.611Z,76.5
2022-09-21T03:14:10.592Z,76.5
2022-09-21T03:17:10.599Z,76.5
2022-09-21T03:20:10.597Z,76.5
2022-09-21T03:23:10.592Z,76.5
2022-09-21T03:26:10.611Z,76.5
2022-09-21T03:29:10.618Z,76.5
2022-09-21T03:32:10.599Z,76.5
2022-09-21T03:35:10.592Z,76.5
2022-09-21T03:38:10.596Z,76.5
2022-09-21T03:41:10.619Z,76.5
2022-09-21T03:44:10.592Z,76.5
2022-09-21T03:47:10.602Z,76.5
2022-09-21T03:50:10.595Z,76.5
2022-09-21T03:53:10.595Z,76.5
2022-09-21T03:56:10.619Z,76.5
2022-09-21T03:59:13.286Z,76.5
2022-09-21T04:02:10.600Z,76.5
2022-09-21T04:05:10.602Z,76.5
2022-09-21T04:08:10.602Z,76.5
2022-09-21T04:11:10.630Z,76.5
2022-09-21T04:14:10.611Z,76.5
2022-09-21T04:17:10.625Z,76.5
2022-09-21T04:20:10.594Z,76.5
2022-09-21T04:23:10.601Z,76.5
2022-09-21T04:26:10.610Z,77
2022-09-21T04:29:10.598Z,77
2022-09-21T04:32:10.605Z,77
2022-09-21T04:35:10.632Z,77
2022-09-21T04:38:10.600Z,77
2022-09-21T04:41:10.622Z,77
2022-09-21T04:44:10.600Z,77
2022-09-21T04:47:10.607Z,77
2022-09-21T04:50:10.601Z,77
2022-09-21T04:53:10.604Z,77
2022-09-21T04:56:10.623Z,77
2022-09-21T04:59:10.625Z,77
2022-09-21T05:02:10.606Z,77
2022-09-21T05:05:10.620Z,77
2022-09-21T05:08:10.627Z,77
2022-09-21T05:11:10.633Z,77
2022-09-21T05:14:10.623Z,77
2022-09-21T05:17:10.604Z,77
2022-09-21T05:20:10.619Z,77
2022-09-21T05:23:13.628Z,77
2022-09-21T05:26:10.610Z,77
2022-09-21T05:29:10.611Z,77
2022-09-21T05:32:10.612Z,77
2022-09-21T05:35:10.616Z,77
2022-09-21T05:38:10.608Z,77
2022-09-21T05:41:10.611Z,77
2022-09-21T05:44:10.620Z,77
2022-09-21T05:47:10.621Z,77
2022-09-21T05:50:10.624Z,77
2022-09-21T05:53:10.612Z,77
2022-09-21T05:56:10.633Z,77.5
2022-09-21T05:59:10.624Z,77.5
2022-09-21T06:02:10.648Z,77.5
2022-09-21T06:05:10.623Z,77.5
2022-09-21T06:08:10.619Z,77.5
2022-09-21T06:11:10.634Z,77.5
2022-09-21T06:14:10.681Z,77.5
2022-09-21T06:17:10.614Z,77.5
2022-09-21T06:20:10.617Z,77.5
2022-09-21T06:23:10.611Z,77.5
2022-09-21T06:26:10.623Z,77.5
2022-09-21T06:29:10.638Z,77.5
2022-09-21T06:32:10.618Z,77.5
2022-09-21T06:35:10.641Z,77.5
2022-09-21T06:38:10.618Z,77.5
2022-09-21T06:41:10.624Z,77.5
2022-09-21T06:44:10.637Z,77.5
2022-09-21T06:47:10.611Z,77.5
2022-09-21T06:50:10.617Z,77.5
2022-09-21T06:53:10.616Z,77.5
2022-09-21T06:56:10.613Z,77.5
2022-09-21T06:59:10.619Z,77.5
2022-09-21T07:02:10.763Z,77.5
2022-09-21T07:05:10.637Z,77.5
2022-09-21T07:10:04.838Z,77.5
2022-09-21T07:11:10.618Z,77.5
2022-09-21T07:14:10.617Z,77.5
2022-09-21T07:17:15.411Z,77.5
2022-09-21T07:20:10.638Z,77.5
2022-09-21T07:23:10.622Z,77.5
2022-09-21T07:26:10.626Z,77.5
2022-09-21T07:29:10.623Z,77.5
2022-09-21T07:32:10.625Z,77.5
2022-09-21T07:35:10.627Z,77.5
2022-09-21T07:38:10.626Z,77.5
2022-09-21T07:41:10.625Z,77.5
2022-09-21T07:44:10.631Z,77.5
2022-09-21T07:47:10.622Z,77.5
2022-09-21T07:50:10.630Z,77.5
2022-09-21T07:53:10.631Z,77.5
2022-09-21T07:56:10.632Z,77.5
2022-09-21T07:59:10.634Z,77
2022-09-21T08:02:10.692Z,77
2022-09-21T08:05:10.625Z,76.5
2022-09-21T08:08:10.626Z,76.5
2022-09-21T08:11:10.630Z,76.5
2022-09-21T08:14:10.634Z,76.5
2022-09-21T08:17:10.630Z,76.5
2022-09-21T08:20:10.628Z,76.5
2022-09-21T08:23:10.629Z,76.5
2022-09-21T08:26:10.634Z,76.5
2022-09-21T08:29:10.633Z,76.5
2022-09-21T08:32:19.009Z,77
2022-09-21T08:35:10.784Z,77
2022-09-21T08:38:10.657Z,77
2022-09-21T08:41:10.639Z,76.5
2022-09-21T08:44:10.642Z,76
2022-09-21T08:47:10.642Z,76
2022-09-21T08:50:10.639Z,75
2022-09-21T08:53:10.648Z,75
2022-09-21T08:56:10.641Z,74.5
2022-09-21T08:59:10.645Z,73.5
2022-09-21T09:02:10.708Z,73
2022-09-21T09:05:10.642Z,73
2022-09-21T09:08:10.706Z,72.5
2022-09-21T09:11:10.647Z,72
2022-09-21T09:14:10.652Z,72
2022-09-21T09:17:10.690Z,72
2022-09-21T09:20:10.649Z,72
2022-09-21T09:23:10.645Z,71.5
2022-09-21T09:26:10.663Z,71.5
2022-09-21T09:29:10.651Z,71
2022-09-21T09:32:10.647Z,70
2022-09-21T09:35:10.653Z,70
2022-09-21T09:38:10.641Z,69.5
2022-09-21T09:41:10.650Z,69
2022-09-21T09:44:10.651Z,69
2022-09-21T09:47:10.654Z,69
2022-09-21T09:50:10.651Z,69
2022-09-21T09:53:10.650Z,68.5
2022-09-21T09:56:10.652Z,68.5
2022-09-21T09:59:10.651Z,68.5
2022-09-21T10:02:10.672Z,67.5
2022-09-21T10:05:10.818Z,67.5
2022-09-21T10:08:10.734Z,67.5
2022-09-21T10:11:10.747Z,67.5
2022-09-21T10:14:10.747Z,67.5
2022-09-21T10:17:10.743Z,67
2022-09-21T10:20:10.723Z,67
2022-09-21T10:23:10.741Z,67.5
2022-09-21T10:26:10.776Z,67.5
2022-09-21T10:29:10.742Z,67.5
2022-09-21T10:32:14.314Z,67
2022-09-21T10:35:10.774Z,67
2022-09-21T10:38:10.743Z,67
2022-09-21T10:41:10.767Z,67
2022-09-21T10:44:10.758Z,67
2022-09-21T10:47:12.083Z,66.5
2022-09-21T10:50:10.748Z,67
2022-09-21T10:53:10.767Z,67
2022-09-21T10:56:16.584Z,67
2022-09-21T10:59:10.751Z,65.5
2022-09-21T11:02:10.748Z,66
2022-09-21T11:05:10.784Z,66
2022-09-21T11:08:10.767Z,66
2022-09-21T11:11:10.768Z,66.5
2022-09-21T11:14:10.775Z,66.5
2022-09-21T11:17:10.773Z,66
2022-09-21T11:20:10.762Z,66.5
2022-09-21T11:23:10.782Z,66.5
2022-09-21T11:26:10.766Z,65.5
2022-09-21T11:29:10.770Z,66
2022-09-21T11:32:10.771Z,66
2022-09-21T11:35:10.869Z,66
2022-09-21T11:38:10.774Z,66
2022-09-21T11:41:10.763Z,66
2022-09-21T11:44:13.453Z,66
2022-09-21T11:47:10.776Z,65.5
2022-09-21T11:50:29.612Z,65.5
2022-09-21T11:53:10.784Z,66
2022-09-21T11:56:10.783Z,66
2022-09-21T11:59:10.764Z,66
2022-09-21T12:02:10.840Z,66
2022-09-21T12:05:10.792Z,66
2022-09-21T12:08:10.764Z,65.5
2022-09-21T12:11:10.783Z,65
2022-09-21T12:14:10.770Z,65
2022-09-21T12:17:10.852Z,65
2022-09-21T12:20:10.792Z,64.5
2022-09-21T12:23:10.790Z,63.5
2022-09-21T12:26:10.802Z,63.5
2022-09-21T12:29:10.792Z,63.5
2022-09-21T12:32:10.789Z,63.5
2022-09-21T12:35:10.806Z,63.5
2022-09-21T12:38:10.789Z,63.5
2022-09-21T12:41:10.788Z,63.5
2022-09-21T12:44:10.805Z,63
2022-09-21T12:47:10.802Z,63
2022-09-21T12:50:10.786Z,63
2022-09-21T12:53:10.787Z,63
2022-09-21T12:56:10.792Z,63
2022-09-21T12:59:10.786Z,63
2022-09-21T13:02:10.948Z,62.5
2022-09-21T13:05:10.791Z,63
2022-09-21T13:08:10.807Z,62.5
2022-09-21T13:11:10.797Z,62.5
2022-09-21T13:14:10.791Z,62.5
2022-09-21T13:17:10.793Z,62
2022-09-21T13:20:10.832Z,62
2022-09-21T13:23:10.810Z,62
2022-09-21T13:26:10.806Z,62
2022-09-21T13:29:10.787Z,62.5
2022-09-21T13:32:10.882Z,62.5
2022-09-21T13:35:10.838Z,62.5
2022-09-21T13:38:10.815Z,62.5
2022-09-21T13:41:13.092Z,62.5
2022-09-21T13:44:11.102Z,62.5
2022-09-21T13:47:10.808Z,62.5
2022-09-21T13:50:10.888Z,62.5
2022-09-21T13:53:10.818Z,62.5
2022-09-21T13:56:10.840Z,62.5
2022-09-21T13:59:10.830Z,62
2022-09-21T14:02:10.890Z,62
2022-09-21T14:05:10.822Z,62
2022-09-21T14:08:10.826Z,62
2022-09-21T14:11:10.829Z,62
2022-09-21T14:14:10.832Z,62
2022-09-21T14:17:10.831Z,61.5
2022-09-21T14:20:10.872Z,61.5
2022-09-21T14:23:10.879Z,61.5
2022-09-21T14:26:10.888Z,61.5
2022-09-21T14:29:10.851Z,61.5
2022-09-21T14:32:10.851Z,61.5
2022-09-21T14:35:10.851Z,61.5
2022-09-21T14:38:10.859Z,61.5
2022-09-21T14:41:13.915Z,61.5
2022-09-21T14:44:10.858Z,61.5
2022-09-21T14:47:10.899Z,61.5
2022-09-21T14:50:15.158Z,61.5
2022-09-21T14:53:10.853Z,61.5
2022-09-21T14:56:10.854Z,61.5
2022-09-21T14:59:10.851Z,61.5
2022-09-21T15:02:10.848Z,61.5
2022-09-21T15:05:10.878Z,61
2022-09-21T15:08:10.864Z,61
2022-09-21T15:11:10.892Z,61
2022-09-21T15:14:10.857Z,61
2022-09-21T15:17:10.866Z,61
2022-09-21T15:20:10.856Z,61
2022-09-21T15:23:10.865Z,61
2022-09-21T15:26:10.871Z,61
2022-09-21T15:29:10.987Z,61
2022-09-21T15:32:11.079Z,61
2022-09-21T15:35:10.887Z,61
2022-09-21T15:38:10.884Z,61
2022-09-21T15:41:11.730Z,61
2022-09-21T15:44:10.879Z,61
2022-09-21T15:47:10.884Z,61
2022-09-21T15:50:10.900Z,61
2022-09-21T15:53:10.878Z,61
2022-09-21T15:56:10.887Z,61
2022-09-21T15:59:10.869Z,61
2022-09-21T16:02:10.874Z,61
2022-09-21T16:05:10.904Z,61
2022-09-21T16:08:10.900Z,61
2022-09-21T16:11:10.914Z,61
2022-09-21T16:14:10.912Z,61
2022-09-21T16:17:10.916Z,61
2022-09-21T16:20:10.917Z,60.5
2022-09-21T16:23:10.933Z,61
2022-09-21T16:26:10.933Z,61
2022-09-21T16:29:10.914Z,61
2022-09-21T16:32:10.936Z,61
2022-09-21T16:35:10.952Z,61
2022-09-21T16:38:10.946Z,61
2022-09-21T16:41:10.925Z,61.5
2022-09-21T16:44:10.936Z,61.5
2022-09-21T16:47:10.947Z,61.5
2022-09-21T16:50:10.935Z,61.5
2022-09-21T16:53:10.926Z,61.5
2022-09-21T16:56:10.935Z,62
2022-09-21T16:59:10.955Z,62
2022-09-21T17:02:10.992Z,62.5
2022-09-21T17:05:10.965Z,62.5
2022-09-21T17:08:10.957Z,62.5
2022-09-21T17:11:10.956Z,62.5
2022-09-21T17:14:10.957Z,62.5
2022-09-21T17:17:10.967Z,62.5
2022-09-21T17:20:10.994Z,62.5
2022-09-21T17:23:11.013Z,62.5
2022-09-21T17:26:11.002Z,63
2022-09-21T17:29:10.983Z,63.5
2022-09-21T17:32:10.977Z,63.5
2022-09-21T17:35:11.020Z,63.5
2022-09-21T17:38:14.266Z,63.5
2022-09-21T17:41:10.993Z,63.5
2022-09-21T17:44:10.967Z,64
2022-09-21T17:47:10.976Z,64.5
2022-09-21T17:50:11.009Z,64.5
2022-09-21T17:53:11.010Z,64.5
2022-09-21T17:56:11.038Z,64.5
2022-09-21T17:59:11.004Z,64.5
2022-09-21T18:02:11.059Z,65
2022-09-21T18:05:11.010Z,65
2022-09-21T18:08:10.988Z,65.5
2022-09-21T18:11:11.266Z,65.5
2022-09-21T18:14:11.272Z,65.5
2022-09-21T18:17:11.293Z,65.5
2022-09-21T18:20:11.301Z,65.5
2022-09-21T18:23:11.269Z,65.5
2022-09-21T18:26:11.277Z,65.5
2022-09-21T18:29:28.759Z,66
2022-09-21T18:32:11.254Z,66.5
2022-09-21T18:35:11.307Z,66.5
2022-09-21T18:38:11.279Z,66.5
2022-09-21T18:41:11.295Z,66.5
2022-09-21T18:44:11.258Z,66.5
2022-09-21T18:47:11.279Z,66.5
2022-09-21T18:50:11.294Z,66.5
2022-09-21T18:53:11.364Z,66.5
2022-09-21T18:56:11.300Z,66.5
2022-09-21T18:59:11.294Z,66.5
2022-09-21T19:02:11.377Z,67
2022-09-21T19:05:11.412Z,67.5
2022-09-21T19:08:11.304Z,67.5
2022-09-21T19:11:11.342Z,67.5
2022-09-21T19:14:11.297Z,67.5
2022-09-21T19:17:11.310Z,67.5
2022-09-21T19:20:11.309Z,67.5
2022-09-21T19:23:11.313Z,67.5
2022-09-21T19:26:11.316Z,67.5
2022-09-21T19:29:11.331Z,67.5
2022-09-21T19:32:11.323Z,67.5
2022-09-21T19:35:11.448Z,67.5
2022-09-21T19:38:11.348Z,67.5
2022-09-21T19:41:11.358Z,68
2022-09-21T19:44:11.331Z,68
2022-09-21T19:47:11.338Z,68
2022-09-21T19:50:11.353Z,68
2022-09-21T19:53:11.329Z,68
2022-09-21T19:56:11.374Z,68.5
2022-09-21T19:59:11.365Z,68.5
2022-09-21T20:02:11.406Z,68.5
2022-09-21T20:05:11.393Z,68.5
2022-09-21T20:08:11.383Z,68.5
2022-09-21T20:11:11.369Z,68.5
2022-09-21T20:14:11.431Z,68.5
2022-09-21T20:17:11.387Z,68.5
2022-09-21T20:20:11.388Z,69
2022-09-21T20:23:11.376Z,69
2022-09-21T20:26:11.373Z,69
2022-09-21T20:29:11.367Z,69
2022-09-21T20:32:11.379Z,69
2022-09-21T20:35:11.438Z,69
2022-09-21T20:38:11.396Z,69.5
2022-09-21T20:41:11.408Z,69.5
2022-09-21T20:44:11.432Z,69.5
2022-09-21T20:47:11.448Z,69.5
2022-09-21T20:50:11.469Z,69.5
2022-09-21T20:53:11.447Z,70
2022-09-21T20:56:11.435Z,70
2022-09-21T20:59:11.425Z,70
2022-09-21T21:02:11.421Z,70
2022-09-21T21:05:11.460Z,70
2022-09-21T21:08:11.421Z,70
2022-09-21T21:11:11.420Z,70
2022-09-21T21:14:11.415Z,70
2022-09-21T21:17:11.447Z,70
2022-09-21T21:20:11.452Z,70
2022-09-21T21:23:11.438Z,70
2022-09-21T21:26:11.426Z,70
2022-09-21T21:29:11.422Z,70
2022-09-21T21:32:11.494Z,70
2022-09-21T21:35:11.462Z,70
2022-09-21T21:38:11.460Z,70
2022-09-21T21:41:11.453Z,70.5
2022-09-21T21:44:11.486Z,70.5
2022-09-21T21:47:35.040Z,71
2022-09-21T21:50:11.460Z,71
2022-09-21T21:53:11.451Z,71
2022-09-21T21:56:11.434Z,71
2022-09-21T21:59:15.467Z,71
2022-09-21T22:02:11.617Z,71
2022-09-21T22:05:11.523Z,71
2022-09-21T22:08:11.461Z,71
2022-09-21T22:11:11.526Z,71
2022-09-21T22:14:11.470Z,71
2022-09-21T22:17:11.580Z,71
2022-09-21T22:20:11.486Z,71
2022-09-21T22:23:11.475Z,71
2022-09-21T22:26:11.475Z,71
2022-09-21T22:29:11.484Z,71
2022-09-21T22:32:11.479Z,71
2022-09-21T22:35:11.509Z,71
2022-09-21T22:38:11.486Z,71
2022-09-21T22:41:11.538Z,71
2022-09-21T22:44:11.507Z,71
2022-09-21T22:47:11.491Z,71
2022-09-21T22:50:11.525Z,71
2022-09-21T22:53:11.501Z,71.5
2022-09-21T22:56:11.505Z,71.5
2022-09-21T22:59:11.529Z,71.5
2022-09-21T23:02:11.513Z,72
2022-09-21T23:05:11.562Z,72
2022-09-21T23:08:11.534Z,72
2022-09-21T23:11:11.518Z,72
2022-09-21T23:14:11.611Z,72
2022-09-21T23:17:11.629Z,72
2022-09-21T23:20:11.552Z,72
2022-09-21T23:23:11.577Z,72
2022-09-21T23:26:11.560Z,72
2022-09-21T23:29:11.563Z,72
2022-09-21T23:32:11.555Z,72
2022-09-21T23:35:11.634Z,72.5
2022-09-21T23:38:11.572Z,72.5
2022-09-21T23:41:11.601Z,72.5
2022-09-21T23:44:11.585Z,72.5
2022-09-21T23:47:11.603Z,72.5
2022-09-21T23:50:11.611Z,73
2022-09-21T23:53:11.603Z,73
2022-09-21T23:56:11.599Z,73
2022-09-21T23:59:11.591Z,73
